sensor_id;sensor_type;location;lat;lon;timestamp;pressure;altitude;pressure_sealevel;temperature;humidity
48778;BME280;34578;0.000;0.000;2024-01-15T00:02:44;95757.97;;;16.42;38.91
48778;BME280;34578;0.000;0.000;2024-01-15T00:07:45;95745.38;;;16.39;38.72
48778;BME280;34578;0.000;0.000;2024-01-15T00:12:45;95732.75;;;16.37;38.75
48778;BME280;34578;0.000;0.000;2024-01-15T00:17:46;95718.44;;;16.39;38.69
48778;BME280;34578;0.000;0.000;2024-01-15T00:22:46;95714.19;;;16.44;39.11
48778;BME280;34578;0.000;0.000;2024-01-15T00:27:46;95709.13;;;16.47;39.77
48778;BME280;34578;0.000;0.000;2024-01-15T00:32:47;95697.31;;;16.46;39.71
48778;BME280;34578;0.000;0.000;2024-01-15T00:37:47;95688.94;;;16.41;40.04
48778;BME280;34578;0.000;0.000;2024-01-15T00:42:48;95692.25;;;16.49;38.95
48778;BME280;34578;0.000;0.000;2024-01-15T00:47:48;95692.25;;;16.49;39.74
48778;BME280;34578;0.000;0.000;2024-01-15T00:52:49;95685.50;;;16.51;39.04
48778;BME280;34578;0.000;0.000;2024-01-15T00:57:49;95683.03;;;16.44;39.94
48778;BME280;34578;0.000;0.000;2024-01-15T01:02:49;95683.00;;;16.45;39.54
48778;BME280;34578;0.000;0.000;2024-01-15T01:07:50;95682.19;;;16.43;39.49
48778;BME280;34578;0.000;0.000;2024-01-15T01:12:50;95650.28;;;16.30;39.75
48778;BME280;34578;0.000;0.000;2024-01-15T01:17:50;95661.16;;;16.41;39.44
48778;BME280;34578;0.000;0.000;2024-01-15T01:22:51;95668.75;;;16.38;39.34
48778;BME280;34578;0.000;0.000;2024-01-15T01:27:51;95668.75;;;16.38;38.65
48778;BME280;34578;0.000;0.000;2024-01-15T01:32:51;95672.13;;;16.37;38.75
48778;BME280;34578;0.000;0.000;2024-01-15T01:37:52;95667.09;;;16.34;38.60
48778;BME280;34578;0.000;0.000;2024-01-15T01:42:52;95662.03;;;16.37;38.91
48778;BME280;34578;0.000;0.000;2024-01-15T01:47:53;95646.88;;;16.40;39.67
48778;BME280;34578;0.000;0.000;2024-01-15T01:52:53;95651.06;;;16.38;40.05
48778;BME280;34578;0.000;0.000;2024-01-15T01:57:54;95647.72;;;16.38;39.13
48778;BME280;34578;0.000;0.000;2024-01-15T02:02:55;95647.69;;;16.41;39.19
48778;BME280;34578;0.000;0.000;2024-01-15T02:07:56;95651.06;;;16.41;39.56
48778;BME280;34578;0.000;0.000;2024-01-15T02:12:56;95638.44;;;16.38;39.68
48778;BME280;34578;0.000;0.000;2024-01-15T02:18:05;95653.59;;;16.41;39.54
48778;BME280;34578;0.000;0.000;2024-01-15T02:23:10;95638.47;;;16.37;39.60
48778;BME280;34578;0.000;0.000;2024-01-15T02:28:15;95631.72;;;16.34;39.46
48778;BME280;34578;0.000;0.000;2024-01-15T02:33:16;95629.19;;;16.36;39.69
48778;BME280;34578;0.000;0.000;2024-01-15T02:38:16;95635.91;;;16.41;39.61
48778;BME280;34578;0.000;0.000;2024-01-15T02:43:17;95636.75;;;16.40;39.63
48778;BME280;34578;0.000;0.000;2024-01-15T02:48:19;95621.63;;;16.37;39.86
48778;BME280;34578;0.000;0.000;2024-01-15T02:53:19;95630.03;;;16.39;39.58
48778;BME280;34578;0.000;0.000;2024-01-15T02:58:21;95628.38;;;16.37;40.12
48778;BME280;34578;0.000;0.000;2024-01-15T03:03:21;95628.34;;;16.38;39.46
48778;BME280;34578;0.000;0.000;2024-01-15T03:08:22;95621.63;;;16.37;39.55
48778;BME280;34578;0.000;0.000;2024-01-15T03:13:22;95617.44;;;16.30;39.48
48778;BME280;34578;0.000;0.000;2024-01-15T03:18:23;95612.38;;;16.33;39.01
48778;BME280;34578;0.000;0.000;2024-01-15T03:23:23;95623.28;;;16.35;38.95
48778;BME280;34578;0.000;0.000;2024-01-15T03:28:23;95616.56;;;16.39;39.22
48778;BME280;34578;0.000;0.000;2024-01-15T03:33:24;95619.91;;;16.42;38.67
48778;BME280;34578;0.000;0.000;2024-01-15T03:38:24;95619.91;;;16.41;38.81
48778;BME280;34578;0.000;0.000;2024-01-15T03:43:26;95607.31;;;16.39;39.44
48778;BME280;34578;0.000;0.000;2024-01-15T03:48:27;95619.91;;;16.42;39.03
48778;BME280;34578;0.000;0.000;2024-01-15T03:53:27;95616.53;;;16.42;39.21
48778;BME280;34578;0.000;0.000;2024-01-15T03:58:27;95618.22;;;16.41;39.03
48778;BME280;34578;0.000;0.000;2024-01-15T04:03:28;95602.25;;;16.39;39.02
48778;BME280;34578;0.000;0.000;2024-01-15T04:08:28;95600.56;;;16.40;39.04
48778;BME280;34578;0.000;0.000;2024-01-15T04:13:28;95597.22;;;16.38;38.95
48778;BME280;34578;0.000;0.000;2024-01-15T04:18:32;95596.38;;;16.37;39.22
48778;BME280;34578;0.000;0.000;2024-01-15T04:23:33;95605.66;;;16.37;39.11
48778;BME280;34578;0.000;0.000;2024-01-15T04:28:33;95599.72;;;16.36;39.59
48778;BME280;34578;0.000;0.000;2024-01-15T04:33:33;95615.75;;;16.37;39.03
48778;BME280;34578;0.000;0.000;2024-01-15T04:38:34;95611.50;;;16.37;39.36
48778;BME280;34578;0.000;0.000;2024-01-15T04:43:36;95611.50;;;16.37;38.85
48778;BME280;34578;0.000;0.000;2024-01-15T04:48:36;95617.41;;;16.38;38.57
48778;BME280;34578;0.000;0.000;2024-01-15T04:53:37;95625.00;;;16.39;37.56
48778;BME280;34578;0.000;0.000;2024-01-15T04:58:37;95627.47;;;16.41;38.61
48778;BME280;34578;0.000;0.000;2024-01-15T05:03:38;95628.34;;;16.41;38.34
48778;BME280;34578;0.000;0.000;2024-01-15T05:08:38;95619.91;;;16.42;38.13
48778;BME280;34578;0.000;0.000;2024-01-15T05:13:38;95624.94;;;16.42;38.30
48778;BME280;34578;0.000;0.000;2024-01-15T05:18:39;95625.75;;;16.44;38.06
48778;BME280;34578;0.000;0.000;2024-01-15T05:23:39;95630.00;;;16.42;36.65
48778;BME280;34578;0.000;0.000;2024-01-15T05:28:43;95622.41;;;16.44;37.33
48778;BME280;34578;0.000;0.000;2024-01-15T05:33:45;95624.91;;;16.45;36.07
48778;BME280;34578;0.000;0.000;2024-01-15T05:38:46;95623.28;;;16.38;38.01
48778;BME280;34578;0.000;0.000;2024-01-15T05:43:46;95607.34;;;16.30;36.89
48778;BME280;34578;0.000;0.000;2024-01-15T05:48:46;95611.50;;;16.37;36.52
48778;BME280;34578;0.000;0.000;2024-01-15T05:53:47;95609.84;;;16.33;37.11
48778;BME280;34578;0.000;0.000;2024-01-15T05:58:47;95606.38;;;16.46;36.75
48778;BME280;34578;0.000;0.000;2024-01-15T06:03:48;95601.38;;;16.43;38.55
48778;BME280;34578;0.000;0.000;2024-01-15T06:08:48;95603.84;;;16.48;39.13
48778;BME280;34578;0.000;0.000;2024-01-15T06:13:48;95608.91;;;16.48;37.87
48778;BME280;34578;0.000;0.000;2024-01-15T06:18:49;95597.16;;;16.42;38.38
48778;BME280;34578;0.000;0.000;2024-01-15T06:23:49;95592.97;;;16.38;38.42
48778;BME280;34578;0.000;0.000;2024-01-15T06:28:49;95598.59;;;15.69;34.97
48778;BME280;34578;0.000;0.000;2024-01-15T06:33:50;95575.22;;;15.49;34.94
48778;BME280;34578;0.000;0.000;2024-01-15T06:38:50;95597.56;;;15.94;37.06
48778;BME280;34578;0.000;0.000;2024-01-15T06:43:51;95589.06;;;16.06;38.61
48778;BME280;34578;0.000;0.000;2024-01-15T06:48:51;95585.63;;;16.13;39.04
48778;BME280;34578;0.000;0.000;2024-01-15T06:53:51;95581.41;;;16.16;39.56
48778;BME280;34578;0.000;0.000;2024-01-15T06:58:52;95567.97;;;16.11;39.84
48778;BME280;34578;0.000;0.000;2024-01-15T07:03:52;95567.06;;;16.18;39.70
48778;BME280;34578;0.000;0.000;2024-01-15T07:08:52;95568.72;;;16.19;39.66
48778;BME280;34578;0.000;0.000;2024-01-15T07:13:53;95573.78;;;16.21;40.13
48778;BME280;34578;0.000;0.000;2024-01-15T07:18:53;95572.91;;;16.23;38.89
48778;BME280;34578;0.000;0.000;2024-01-15T07:23:53;95574.56;;;16.27;39.74
48778;BME280;34578;0.000;0.000;2024-01-15T07:28:54;95545.91;;;16.28;39.08
48778;BME280;34578;0.000;0.000;2024-01-15T07:33:54;95538.34;;;16.28;39.21
48778;BME280;34578;0.000;0.000;2024-01-15T07:38:55;95539.19;;;16.27;39.48
48778;BME280;34578;0.000;0.000;2024-01-15T07:43:55;95526.63;;;16.21;38.57
48778;BME280;34578;0.000;0.000;2024-01-15T07:48:56;95540.06;;;16.26;39.11
48778;BME280;34578;0.000;0.000;2024-01-15T07:53:57;95540.91;;;16.27;39.09
48778;BME280;34578;0.000;0.000;2024-01-15T07:58:58;95547.63;;;16.26;39.04
48778;BME280;34578;0.000;0.000;2024-01-15T08:03:59;95554.38;;;16.24;39.05
48778;BME280;34578;0.000;0.000;2024-01-15T08:08:59;95564.50;;;16.21;38.84
48778;BME280;34578;0.000;0.000;2024-01-15T08:14:00;95564.50;;;16.21;39.53
48778;BME280;34578;0.000;0.000;2024-01-15T08:19:00;95550.16;;;16.26;38.69
48778;BME280;34578;0.000;0.000;2024-01-15T08:24:01;95537.53;;;16.26;39.03
48778;BME280;34578;0.000;0.000;2024-01-15T08:29:04;95524.91;;;16.25;38.89
48778;BME280;34578;0.000;0.000;2024-01-15T08:34:05;95537.53;;;16.26;39.21
48778;BME280;34578;0.000;0.000;2024-01-15T08:39:05;95546.75;;;16.29;39.00
48778;BME280;34578;0.000;0.000;2024-01-15T08:44:06;95545.97;;;16.25;38.60
48778;BME280;34578;0.000;0.000;2024-01-15T08:49:06;95532.47;;;16.25;39.11
48778;BME280;34578;0.000;0.000;2024-01-15T08:54:07;95526.63;;;16.23;39.07
48778;BME280;34578;0.000;0.000;2024-01-15T08:59:08;95524.09;;;16.21;38.82
48778;BME280;34578;0.000;0.000;2024-01-15T09:04:09;95519.91;;;16.20;39.41
48778;BME280;34578;0.000;0.000;2024-01-15T09:09:09;95530.84;;;16.19;39.10
48778;BME280;34578;0.000;0.000;2024-01-15T09:14:10;95516.56;;;16.17;39.43
48778;BME280;34578;0.000;0.000;2024-01-15T09:19:10;95517.41;;;16.17;39.36
48778;BME280;34578;0.000;0.000;2024-01-15T09:24:11;95502.31;;;16.14;39.36
48778;BME280;34578;0.000;0.000;2024-01-15T09:29:11;95500.59;;;16.16;39.27
48778;BME280;34578;0.000;0.000;2024-01-15T09:34:12;95485.47;;;16.16;38.92
48778;BME280;34578;0.000;0.000;2024-01-15T09:39:12;95487.13;;;16.17;39.03
48778;BME280;34578;0.000;0.000;2024-01-15T09:44:12;95462.69;;;16.22;39.00
48778;BME280;34578;0.000;0.000;2024-01-15T09:49:13;95469.41;;;16.20;39.36
48778;BME280;34578;0.000;0.000;2024-01-15T09:54:16;95482.03;;;16.23;39.06
48778;BME280;34578;0.000;0.000;2024-01-15T09:59:18;95483.69;;;16.21;38.96
48778;BME280;34578;0.000;0.000;2024-01-15T10:04:18;95477.88;;;16.18;39.35
48778;BME280;34578;0.000;0.000;2024-01-15T10:09:19;95476.22;;;16.15;39.34
48778;BME280;34578;0.000;0.000;2024-01-15T10:14:19;95481.22;;;16.18;38.81
48778;BME280;34578;0.000;0.000;2024-01-15T10:19:22;95477.03;;;16.17;39.39
48778;BME280;34578;0.000;0.000;2024-01-15T10:24:22;95477.06;;;16.14;38.84
48778;BME280;34578;0.000;0.000;2024-01-15T10:29:24;95476.22;;;16.15;39.13
48778;BME280;34578;0.000;0.000;2024-01-15T10:34:25;95488.84;;;16.15;38.45
48778;BME280;34578;0.000;0.000;2024-01-15T10:39:25;95478.75;;;16.15;39.43
48778;BME280;34578;0.000;0.000;2024-01-15T10:44:25;95479.59;;;16.14;39.40
48778;BME280;34578;0.000;0.000;2024-01-15T10:49:26;95484.66;;;16.13;38.80
48778;BME280;34578;0.000;0.000;2024-01-15T10:54:29;95478.75;;;16.12;39.21
48778;BME280;34578;0.000;0.000;2024-01-15T10:59:29;95488.84;;;16.15;38.72
48778;BME280;34578;0.000;0.000;2024-01-15T11:04:32;95483.78;;;16.15;39.79
48778;BME280;34578;0.000;0.000;2024-01-15T11:09:32;95500.59;;;16.16;39.39
48778;BME280;34578;0.000;0.000;2024-01-15T11:14:39;95493.91;;;16.12;39.29
48778;BME280;34578;0.000;0.000;2024-01-15T11:19:50;95506.50;;;16.15;39.61
48778;BME280;34578;0.000;0.000;2024-01-15T11:24:53;95498.94;;;16.15;40.20
48778;BME280;34578;0.000;0.000;2024-01-15T11:30:04;95496.31;;;16.21;40.61
48778;BME280;34578;0.000;0.000;2024-01-15T11:35:08;95502.22;;;16.23;41.00
48778;BME280;34578;0.000;0.000;2024-01-15T11:40:09;95497.28;;;16.11;37.60
48778;BME280;34578;0.000;0.000;2024-01-15T11:45:12;95487.03;;;16.26;40.81
48778;BME280;34578;0.000;0.000;2024-01-15T11:50:12;95490.34;;;16.28;39.48
48778;BME280;34578;0.000;0.000;2024-01-15T11:55:22;95506.25;;;16.36;39.64
48778;BME280;34578;0.000;0.000;2024-01-15T12:00:27;95507.09;;;16.38;40.47
48778;BME280;34578;0.000;0.000;2024-01-15T12:05:28;95515.53;;;16.40;40.66
48778;BME280;34578;0.000;0.000;2024-01-15T12:10:29;95510.47;;;16.40;40.55
48778;BME280;34578;0.000;0.000;2024-01-15T12:15:30;95491.09;;;16.41;39.67
48778;BME280;34578;0.000;0.000;2024-01-15T12:20:31;95480.13;;;16.43;39.37
48778;BME280;34578;0.000;0.000;2024-01-15T12:25:33;95459.03;;;16.47;39.15
48778;BME280;34578;0.000;0.000;2024-01-15T12:30:34;95441.31;;;16.49;39.18
48778;BME280;34578;0.000;0.000;2024-01-15T12:35:36;95429.50;;;16.51;38.97
48778;BME280;34578;0.000;0.000;2024-01-15T12:40:37;95449.75;;;16.49;38.94
48778;BME280;34578;0.000;0.000;2024-01-15T12:45:37;95459.81;;;16.52;39.85
48778;BME280;34578;0.000;0.000;2024-01-15T12:50:38;95458.13;;;16.51;38.62
48778;BME280;34578;0.000;0.000;2024-01-15T12:55:38;95456.41;;;16.53;39.23
48778;BME280;34578;0.000;0.000;2024-01-15T13:00:41;95458.13;;;16.51;40.55
48778;BME280;34578;0.000;0.000;2024-01-15T13:05:41;95453.03;;;16.54;37.78
48778;BME280;34578;0.000;0.000;2024-01-15T13:10:41;95447.13;;;16.55;36.65
48778;BME280;34578;0.000;0.000;2024-01-15T13:15:44;95458.94;;;16.55;38.94
48778;BME280;34578;0.000;0.000;2024-01-15T13:20:45;95473.25;;;16.54;38.99
48778;BME280;34578;0.000;0.000;2024-01-15T13:25:46;95480.06;;;16.49;37.90
48778;BME280;34578;0.000;0.000;2024-01-15T13:30:46;95464.09;;;16.47;38.65
48778;BME280;34578;0.000;0.000;2024-01-15T13:35:47;95476.56;;;16.59;37.88
48778;BME280;34578;0.000;0.000;2024-01-15T13:40:50;95480.75;;;16.60;38.33
48778;BME280;34578;0.000;0.000;2024-01-15T13:45:50;95503.44;;;16.63;37.26
48778;BME280;34578;0.000;0.000;2024-01-15T13:50:51;95505.09;;;16.67;37.03
48778;BME280;34578;0.000;0.000;2024-01-15T13:55:51;95515.19;;;16.67;37.90
48778;BME280;34578;0.000;0.000;2024-01-15T14:00:52;95517.78;;;16.64;38.61
48778;BME280;34578;0.000;0.000;2024-01-15T14:05:52;95525.34;;;16.64;38.85
48778;BME280;34578;0.000;0.000;2024-01-15T14:10:53;95527.84;;;16.66;37.66
48778;BME280;34578;0.000;0.000;2024-01-15T14:15:54;95528.69;;;16.66;38.17
48778;BME280;34578;0.000;0.000;2024-01-15T14:20:55;95538.00;;;16.64;38.63
48778;BME280;34578;0.000;0.000;2024-01-15T14:25:56;95547.25;;;16.64;40.80
48778;BME280;34578;0.000;0.000;2024-01-15T14:30:56;95553.16;;;16.63;40.32
48778;BME280;34578;0.000;0.000;2024-01-15T14:36:00;95575.91;;;16.61;39.58
48778;BME280;34578;0.000;0.000;2024-01-15T14:41:00;95582.66;;;16.59;41.83
48778;BME280;34578;0.000;0.000;2024-01-15T14:46:01;95583.53;;;16.60;40.97
48778;BME280;34578;0.000;0.000;2024-01-15T14:51:01;95594.44;;;16.60;38.83
48778;BME280;34578;0.000;0.000;2024-01-15T14:56:03;95591.91;;;16.60;41.52
48778;BME280;34578;0.000;0.000;2024-01-15T15:01:04;95586.88;;;16.62;41.59
48778;BME280;34578;0.000;0.000;2024-01-15T15:06:04;95586.97;;;16.51;39.85
48778;BME280;34578;0.000;0.000;2024-01-15T15:11:05;95594.53;;;16.53;43.15
48778;BME280;34578;0.000;0.000;2024-01-15T15:16:05;95602.94;;;16.53;43.27
48778;BME280;34578;0.000;0.000;2024-01-15T15:21:08;95602.94;;;16.56;42.06
48778;BME280;34578;0.000;0.000;2024-01-15T15:26:09;95613.81;;;16.61;39.27
48778;BME280;34578;0.000;0.000;2024-01-15T15:31:09;95630.59;;;16.67;37.96
48778;BME280;34578;0.000;0.000;2024-01-15T15:36:11;95641.53;;;16.67;39.27
48778;BME280;34578;0.000;0.000;2024-01-15T15:41:11;95647.41;;;16.67;37.65
48778;BME280;34578;0.000;0.000;2024-01-15T15:46:12;95663.38;;;16.71;37.39
48778;BME280;34578;0.000;0.000;2024-01-15T15:51:13;95655.84;;;16.68;38.04
48778;BME280;34578;0.000;0.000;2024-01-15T15:56:13;95649.94;;;16.69;37.62
48778;BME280;34578;0.000;0.000;2024-01-15T16:01:13;95650.78;;;16.70;37.70
48778;BME280;34578;0.000;0.000;2024-01-15T16:06:14;95651.59;;;16.70;37.82
48778;BME280;34578;0.000;0.000;2024-01-15T16:11:14;95665.91;;;16.73;37.89
48778;BME280;34578;0.000;0.000;2024-01-15T16:16:15;95669.28;;;16.72;38.19
48778;BME280;34578;0.000;0.000;2024-01-15T16:21:15;95685.31;;;16.72;37.77
48778;BME280;34578;0.000;0.000;2024-01-15T16:26:15;95680.25;;;16.72;37.40
48778;BME280;34578;0.000;0.000;2024-01-15T16:31:16;95681.94;;;16.73;36.40
48778;BME280;34578;0.000;0.000;2024-01-15T16:36:16;95685.28;;;16.73;36.71
48778;BME280;34578;0.000;0.000;2024-01-15T16:41:17;95691.19;;;16.74;37.50
48778;BME280;34578;0.000;0.000;2024-01-15T16:46:18;95691.19;;;16.73;37.15
48778;BME280;34578;0.000;0.000;2024-01-15T16:51:18;95709.72;;;16.73;37.24
48778;BME280;34578;0.000;0.000;2024-01-15T16:56:19;95719.03;;;16.70;36.73
48778;BME280;34578;0.000;0.000;2024-01-15T17:01:20;95732.44;;;16.76;36.03
48778;BME280;34578;0.000;0.000;2024-01-15T17:06:20;95733.28;;;16.77;35.92
48778;BME280;34578;0.000;0.000;2024-01-15T17:11:21;95752.66;;;16.76;37.15
48778;BME280;34578;0.000;0.000;2024-01-15T17:16:21;95755.19;;;16.76;36.21
48778;BME280;34578;0.000;0.000;2024-01-15T17:21:21;95768.63;;;16.81;34.93
48778;BME280;34578;0.000;0.000;2024-01-15T17:26:22;95768.63;;;16.81;34.63
48778;BME280;34578;0.000;0.000;2024-01-15T17:31:22;95778.69;;;16.84;34.30
48778;BME280;34578;0.000;0.000;2024-01-15T17:36:23;95780.38;;;16.85;34.58
48778;BME280;34578;0.000;0.000;2024-01-15T17:41:23;95803.13;;;16.85;34.90
48778;BME280;34578;0.000;0.000;2024-01-15T17:46:24;95814.91;;;16.89;34.44
48778;BME280;34578;0.000;0.000;2024-01-15T17:51:25;95822.44;;;16.90;34.39
48778;BME280;34578;0.000;0.000;2024-01-15T17:56:25;95823.31;;;16.91;34.63
48778;BME280;34578;0.000;0.000;2024-01-15T18:01:26;95831.72;;;16.93;34.27
48778;BME280;34578;0.000;0.000;2024-01-15T18:06:27;95838.47;;;16.91;34.11
48778;BME280;34578;0.000;0.000;2024-01-15T18:11:27;95851.97;;;16.90;35.14
48778;BME280;34578;0.000;0.000;2024-01-15T18:16:28;95868.00;;;16.87;35.06
48778;BME280;34578;0.000;0.000;2024-01-15T18:21:29;95875.56;;;16.86;34.16
48778;BME280;34578;0.000;0.000;2024-01-15T18:26:29;95878.97;;;16.86;35.80
48778;BME280;34578;0.000;0.000;2024-01-15T18:31:30;95885.69;;;16.89;35.62
48778;BME280;34578;0.000;0.000;2024-01-15T18:36:30;95896.63;;;16.88;36.24
48778;BME280;34578;0.000;0.000;2024-01-15T18:41:31;95910.13;;;16.90;36.06
48778;BME280;34578;0.000;0.000;2024-01-15T18:46:31;95925.25;;;16.91;38.72
48778;BME280;34578;0.000;0.000;2024-01-15T18:51:32;95929.44;;;16.95;36.56
48778;BME280;34578;0.000;0.000;2024-01-15T18:56:32;95946.31;;;16.92;37.22
48778;BME280;34578;0.000;0.000;2024-01-15T19:01:36;95938.75;;;16.93;37.11
48778;BME280;34578;0.000;0.000;2024-01-15T19:06:37;95949.66;;;16.97;36.79
48778;BME280;34578;0.000;0.000;2024-01-15T19:11:38;95947.94;;;17.00;36.91
48778;BME280;34578;0.000;0.000;2024-01-15T19:16:38;95963.13;;;17.02;37.25
48778;BME280;34578;0.000;0.000;2024-01-15T19:21:38;95953.84;;;17.01;37.36
48778;BME280;34578;0.000;0.000;2024-01-15T19:26:39;95964.03;;;16.90;38.48
48778;BME280;34578;0.000;0.000;2024-01-15T19:31:39;95964.84;;;16.94;38.63
48778;BME280;34578;0.000;0.000;2024-01-15T19:36:39;95969.06;;;16.95;38.98
48778;BME280;34578;0.000;0.000;2024-01-15T19:41:40;95971.56;;;16.95;38.44
48778;BME280;34578;0.000;0.000;2024-01-15T19:46:40;95979.16;;;16.96;38.30
48778;BME280;34578;0.000;0.000;2024-01-15T19:51:41;95978.31;;;16.99;39.35
48778;BME280;34578;0.000;0.000;2024-01-15T19:56:41;95978.34;;;16.94;42.36
48778;BME280;34578;0.000;0.000;2024-01-15T20:01:41;95980.91;;;16.90;41.72
48778;BME280;34578;0.000;0.000;2024-01-15T20:06:42;95998.59;;;16.87;41.96
48778;BME280;34578;0.000;0.000;2024-01-15T20:11:43;96001.97;;;16.89;39.91
48778;BME280;34578;0.000;0.000;2024-01-15T20:16:44;96004.50;;;16.87;41.65
48778;BME280;34578;0.000;0.000;2024-01-15T20:21:45;96015.41;;;16.94;41.85
48778;BME280;34578;0.000;0.000;2024-01-15T20:26:45;96012.91;;;16.89;41.43
48778;BME280;34578;0.000;0.000;2024-01-15T20:31:45;96017.09;;;16.95;41.84
48778;BME280;34578;0.000;0.000;2024-01-15T20:36:47;96023.00;;;16.95;41.53
48778;BME280;34578;0.000;0.000;2024-01-15T20:41:47;96019.63;;;16.95;42.85
48778;BME280;34578;0.000;0.000;2024-01-15T20:46:49;96019.63;;;16.95;42.77
48778;BME280;34578;0.000;0.000;2024-01-15T20:51:52;96025.53;;;16.94;43.62
48778;BME280;34578;0.000;0.000;2024-01-15T20:56:53;96033.94;;;16.96;42.67
48778;BME280;34578;0.000;0.000;2024-01-15T21:01:53;96030.53;;;17.03;41.98
48778;BME280;34578;0.000;0.000;2024-01-15T21:06:54;96037.31;;;16.98;42.79
48778;BME280;34578;0.000;0.000;2024-01-15T21:11:56;96028.03;;;16.98;43.86
48778;BME280;34578;0.000;0.000;2024-01-15T21:16:56;96024.69;;;16.92;42.54
48778;BME280;34578;0.000;0.000;2024-01-15T21:21:57;96038.16;;;16.95;41.97
48778;BME280;34578;0.000;0.000;2024-01-15T21:26:57;96041.53;;;16.93;42.67
48778;BME280;34578;0.000;0.000;2024-01-15T21:31:58;96045.75;;;16.92;43.08
48778;BME280;34578;0.000;0.000;2024-01-15T21:36:58;96044.09;;;16.90;43.05
48778;BME280;34578;0.000;0.000;2024-01-15T21:41:59;96042.41;;;16.90;42.36
48778;BME280;34578;0.000;0.000;2024-01-15T21:46:59;96047.44;;;16.92;42.30
48778;BME280;34578;0.000;0.000;2024-01-15T21:51:59;96050.84;;;16.91;42.32
48778;BME280;34578;0.000;0.000;2024-01-15T21:57:00;96048.31;;;16.89;42.11
48778;BME280;34578;0.000;0.000;2024-01-15T22:02:00;96054.22;;;16.90;40.21
48778;BME280;34578;0.000;0.000;2024-01-15T22:07:04;96049.16;;;16.90;41.77
48778;BME280;34578;0.000;0.000;2024-01-15T22:12:05;96062.66;;;16.89;40.59
48778;BME280;34578;0.000;0.000;2024-01-15T22:17:05;96069.38;;;16.90;39.06
48778;BME280;34578;0.000;0.000;2024-01-15T22:22:06;96072.75;;;16.89;39.89
48778;BME280;34578;0.000;0.000;2024-01-15T22:27:06;96067.69;;;16.89;38.31
48778;BME280;34578;0.000;0.000;2024-01-15T22:32:06;96072.75;;;16.89;39.29
48778;BME280;34578;0.000;0.000;2024-01-15T22:37:07;96078.63;;;16.89;39.68
48778;BME280;34578;0.000;0.000;2024-01-15T22:42:07;96077.81;;;16.89;39.75
48778;BME280;34578;0.000;0.000;2024-01-15T22:47:09;96079.47;;;16.87;40.02
48778;BME280;34578;0.000;0.000;2024-01-15T22:52:09;96077.81;;;16.89;40.12
48778;BME280;34578;0.000;0.000;2024-01-15T22:57:09;96079.50;;;16.82;39.29
48778;BME280;34578;0.000;0.000;2024-01-15T23:02:10;96097.19;;;16.88;39.61
48778;BME280;34578;0.000;0.000;2024-01-15T23:07:13;96087.06;;;16.87;39.69
48778;BME280;34578;0.000;0.000;2024-01-15T23:12:13;96096.34;;;16.88;40.48
48778;BME280;34578;0.000;0.000;2024-01-15T23:17:13;96100.56;;;16.87;39.53
48778;BME280;34578;0.000;0.000;2024-01-15T23:22:14;96108.16;;;16.86;40.43
48778;BME280;34578;0.000;0.000;2024-01-15T23:27:14;96110.66;;;16.86;40.41
48778;BME280;34578;0.000;0.000;2024-01-15T23:32:14;96105.63;;;16.86;39.99
48778;BME280;34578;0.000;0.000;2024-01-15T23:37:15;96105.63;;;16.84;40.02
48778;BME280;34578;0.000;0.000;2024-01-15T23:42:15;96105.63;;;16.86;39.62
48778;BME280;34578;0.000;0.000;2024-01-15T23:47:15;96109.84;;;16.84;40.36
48778;BME280;34578;0.000;0.000;2024-01-15T23:52:17;96125.00;;;16.84;40.89
48778;BME280;34578;0.000;0.000;2024-01-15T23:57:17;96114.06;;;16.85;40.75
